Time;durP1;ratioP1;P1;durP2;ratioP2;P2;SDS_P1;SDS_P2;PMS_P1;PMS_P2;Temp;Humidity;BMP_temperature;BMP_pressure;BME280_temperature;BME280_humidity;BME280_pressure;Samples;Min_cycle;Max_cycle;Signal;HPM_P1;HPM_P2
2021/03/23 00:03:04;;;;;;;27.37;16.85;;;;;;;2.41;76.50;99165.42;1721419;83;21191;-76
2021/03/23 00:06:10;;;;;;;24.75;17.45;;;;;;;2.43;76.83;99162.05;1721545;83;21152;-76
2021/03/23 00:09:16;;;;;;;25.23;17.15;;;;;;;2.42;76.94;99165.26;1721481;83;21267;-76
2021/03/23 00:12:22;;;;;;;28.67;18.32;;;;;;;2.43;77.23;99164.75;1721541;83;21905;-76
2021/03/23 00:15:31;;;;;;;25.15;16.52;;;;;;;2.42;77.51;99169.81;1721359;82;21780;-76
2021/03/23 00:18:37;;;;;;;30.15;17.82;;;;;;;2.43;77.85;99164.25;1721512;83;21310;-76
2021/03/23 00:21:42;;;;;;;25.68;14.63;;;;;;;2.44;78.11;99169.14;1721564;83;21349;-76
2021/03/23 00:24:47;;;;;;;27.30;16.73;;;;;;;2.41;78.20;99171.66;1721525;83;21254;-76
2021/03/23 00:27:51;;;;;;;29.87;18.45;;;;;;;2.35;78.29;99166.00;1721505;83;21319;-76
2021/03/23 00:30:58;;;;;;;27.48;17.92;;;;;;;2.32;78.62;99159.58;1721450;83;21187;-76
2021/03/23 00:34:09;;;;;;;24.35;16.60;;;;;;;2.35;78.99;99160.61;1706880;83;21148;-76
2021/03/23 00:37:15;;;;;;;23.27;15.75;;;;;;;2.39;79.07;99157.95;1721480;83;21802;-76
2021/03/23 00:40:23;;;;;;;22.02;14.85;;;;;;;2.30;79.07;99155.16;1721501;83;21306;-75
2021/03/23 00:43:27;;;;;;;21.55;14.35;;;;;;;2.20;79.34;99159.77;1707386;83;21188;-76
2021/03/23 00:46:33;;;;;;;24.77;16.55;;;;;;;2.11;79.73;99159.83;1720886;83;21335;-76
2021/03/23 00:49:38;;;;;;;31.70;17.95;;;;;;;2.03;80.14;99158.75;1719964;83;21162;-76
2021/03/23 00:52:44;;;;;;;25.30;17.50;;;;;;;2.03;80.50;99161.95;1719973;83;21146;-77
2021/03/23 00:55:50;;;;;;;28.95;16.85;;;;;;;2.03;80.77;99149.81;1720007;83;21162;-76
2021/03/23 00:58:55;;;;;;;23.65;16.40;;;;;;;2.03;80.94;99142.56;1732905;83;21272;-76
2021/03/23 01:02:00;;;;;;;24.47;16.57;;;;;;;2.03;81.16;99143.07;1732603;83;21336;-76
2021/03/23 01:05:06;;;;;;;26.55;16.35;;;;;;;2.04;81.46;99143.41;1732809;83;21280;-76
2021/03/23 01:08:12;;;;;;;28.32;18.20;;;;;;;2.04;81.50;99139.36;1732770;83;21752;-76
2021/03/23 01:11:17;;;;;;;25.85;18.32;;;;;;;2.06;81.70;99131.95;1732856;83;21307;-76
2021/03/23 01:14:23;;;;;;;22.90;16.25;;;;;;;2.13;81.78;99126.83;1732930;83;21260;-76
2021/03/23 01:17:28;;;;;;;21.90;16.87;;;;;;;2.14;81.69;99123.97;1732709;83;21201;-76
2021/03/23 01:20:35;;;;;;;24.37;16.90;;;;;;;2.14;81.74;99122.62;1733091;83;21658;-76
2021/03/23 01:23:40;;;;;;;22.98;16.15;;;;;;;2.13;81.76;99122.28;1732953;83;21173;-77
2021/03/23 01:26:45;;;;;;;23.12;15.65;;;;;;;2.13;81.96;99122.78;1732949;83;21271;-76
2021/03/23 01:29:50;;;;;;;27.25;17.25;;;;;;;2.11;82.01;99108.07;1732971;83;21280;-76
2021/03/23 01:32:55;;;;;;;28.42;18.60;;;;;;;2.14;82.06;99113.17;1732692;83;21197;-76
2021/03/23 01:36:00;;;;;;;25.10;17.77;;;;;;;2.17;82.07;99111.53;1733071;83;21569;-76
2021/03/23 01:39:06;;;;;;;24.80;17.05;;;;;;;2.17;81.94;99111.53;1732927;83;21196;-76
2021/03/23 01:42:13;;;;;;;25.37;16.80;;;;;;;2.20;82.12;99109.86;1731499;82;21169;-76
2021/03/23 01:45:33;;;;;;;22.75;15.83;;;;;;;2.24;82.15;99105.86;1732855;83;21284;-76
2021/03/23 01:48:40;;;;;;;29.70;17.77;;;;;;;2.26;82.03;99098.98;1726888;82;21830;-76
2021/03/23 01:51:46;;;;;;;26.00;17.95;;;;;;;2.23;81.81;99102.82;1714386;83;21267;-76
2021/03/23 01:54:58;;;;;;;24.50;17.32;;;;;;;2.20;81.93;99097.72;1724142;83;21258;-76
2021/03/23 01:58:03;;;;;;;24.32;16.95;;;;;;;2.20;81.97;99095.02;1714493;84;21275;-76
2021/03/23 02:01:09;;;;;;;24.25;16.55;;;;;;;2.15;81.95;99094.63;1724071;83;21258;-76
2021/03/23 02:04:15;;;;;;;23.73;16.75;;;;;;;2.11;82.10;99087.00;1714338;84;21287;-76
2021/03/23 02:07:22;;;;;;;22.30;16.32;;;;;;;2.08;82.26;99084.63;1724218;83;21258;-76
2021/03/23 02:10:27;;;;;;;22.75;14.50;;;;;;;2.05;82.48;99079.86;1712967;84;21152;-76
2021/03/23 02:13:33;;;;;;;22.20;15.58;;;;;;;2.02;82.59;99080.19;1724128;83;21275;-76
2021/03/23 02:16:38;;;;;;;23.70;16.70;;;;;;;2.00;82.77;99074.58;1714231;83;21705;-76
2021/03/23 02:19:42;;;;;;;19.92;13.18;;;;;;;1.96;82.88;99074.53;1724111;83;21270;-76
2021/03/23 02:22:50;;;;;;;24.72;16.45;;;;;;;1.93;83.08;99065.39;1714353;84;21263;-76
2021/03/23 02:25:56;;;;;;;22.20;15.40;;;;;;;1.91;83.26;99064.70;1724049;83;21271;-76
2021/03/23 02:29:07;;;;;;;25.95;17.75;;;;;;;1.89;83.39;99055.93;1714382;84;21267;-76
2021/03/23 02:32:14;;;;;;;27.77;16.67;;;;;;;1.86;83.67;99055.72;1724025;83;21837;-76
2021/03/23 02:35:19;;;;;;;25.90;17.32;;;;;;;1.87;83.81;99048.47;1714326;84;21267;-76
2021/03/23 02:38:24;;;;;;;19.02;13.72;;;;;;;1.89;83.92;99054.58;1724112;83;21314;-76
2021/03/23 02:41:31;;;;;;;21.60;15.23;;;;;;;1.92;84.00;99047.52;1714433;84;22227;-75
2021/03/23 02:44:47;;;;;;;22.52;14.90;;;;;;;1.88;83.85;99048.31;1724097;83;21172;-76
2021/03/23 02:47:52;;;;;;;20.90;15.58;;;;;;;1.86;84.00;99053.02;1704614;83;21762;-76
2021/03/23 02:50:57;;;;;;;20.90;14.87;;;;;;;1.86;84.20;99042.23;1714292;83;21279;-76
2021/03/23 02:54:02;;;;;;;22.73;15.30;;;;;;;1.90;84.28;99050.38;1714194;84;21279;-76
2021/03/23 02:57:07;;;;;;;22.98;15.20;;;;;;;1.91;84.24;99043.13;1714368;84;21814;-76
2021/03/23 03:00:17;;;;;;;25.97;15.90;;;;;;;1.85;84.16;99043.24;1714455;84;21883;-76
2021/03/23 03:03:23;;;;;;;21.35;14.87;;;;;;;1.81;84.23;99039.66;1714283;83;21338;-76
2021/03/23 03:06:29;;;;;;;25.48;15.53;;;;;;;1.79;84.45;99043.36;1714361;84;21696;-76
2021/03/23 03:09:34;;;;;;;22.10;16.73;;;;;;;1.77;84.48;99047.19;1714421;83;21755;-76
2021/03/23 03:12:40;;;;;;;20.97;15.08;;;;;;;1.75;84.69;99048.70;1714383;83;21288;-76
2021/03/23 03:15:47;;;;;;;18.85;12.80;;;;;;;1.76;84.84;99049.03;1714426;83;21291;-76
2021/03/23 03:18:52;;;;;;;21.23;14.35;;;;;;;1.74;84.94;99041.61;1700223;84;21310;-76
2021/03/23 03:21:57;;;;;;;22.15;16.37;;;;;;;1.76;85.05;99049.03;1714399;83;21315;-76
2021/03/23 03:25:03;;;;;;;20.10;15.35;;;;;;;1.76;85.11;99044.15;1714279;84;21295;-76
2021/03/23 03:28:08;;;;;;;23.83;15.05;;;;;;;1.70;85.06;99052.34;1714308;84;21279;-76
2021/03/23 03:31:13;;;;;;;17.30;13.08;;;;;;;1.68;85.23;99050.28;1714361;84;21275;-76
2021/03/23 03:34:21;;;;;;;21.00;14.58;;;;;;;1.66;85.38;99051.45;1714318;83;21327;-76
2021/03/23 03:37:26;;;;;;;20.72;15.43;;;;;;;1.63;85.55;99048.54;1714364;83;21795;-76
2021/03/23 03:40:35;;;;;;;17.87;12.95;;;;;;;1.63;85.69;99048.54;1714348;84;21272;-76
2021/03/23 03:43:41;;;;;;;16.42;13.03;;;;;;;1.63;85.80;99049.04;1714421;84;21279;-76
2021/03/23 03:46:46;;;;;;;17.48;13.43;;;;;;;1.59;85.87;99056.57;1714344;84;21320;-76
2021/03/23 03:49:52;;;;;;;17.55;13.95;;;;;;;1.53;85.95;99059.38;1715656;83;21761;-76
2021/03/23 03:52:58;;;;;;;17.00;12.75;;;;;;;1.53;86.15;99062.56;1721469;83;21212;-76
2021/03/23 03:56:04;;;;;;;22.50;15.98;;;;;;;1.53;86.37;99063.41;1721516;83;21258;-76
2021/03/23 03:59:10;;;;;;;24.18;18.95;;;;;;;1.54;86.61;99067.80;1721508;83;21192;-76
2021/03/23 04:02:15;;;;;;;23.73;16.93;;;;;;;1.53;86.74;99076.05;1721547;83;21266;-76
2021/03/23 04:05:31;;;;;;;32.95;23.00;;;;;;;1.59;86.90;99071.90;1721419;83;21295;-76
2021/03/23 04:08:39;;;;;;;31.17;23.67;;;;;;;1.61;86.86;99079.36;1721524;83;21846;-76
2021/03/23 04:11:46;;;;;;;29.07;22.17;;;;;;;1.61;86.80;99082.05;1721531;83;21160;-76
2021/03/23 04:14:51;;;;;;;33.58;22.82;;;;;;;1.56;86.77;99089.23;1695442;83;21298;-76
2021/03/23 04:17:57;;;;;;;29.50;20.37;;;;;;;1.52;86.82;99091.37;1730176;82;21324;-76
2021/03/23 04:21:07;;;;;;;32.53;23.52;;;;;;;1.49;86.92;99087.61;1736525;82;21125;-76
2021/03/23 04:24:12;;;;;;;49.63;30.30;;;;;;;1.46;87.07;99083.05;1736692;82;21283;-76
2021/03/23 04:27:17;;;;;;;43.28;28.05;;;;;;;1.45;87.29;99084.02;1736728;82;21795;-76
2021/03/23 04:30:22;;;;;;;48.92;28.95;;;;;;;1.40;87.44;99081.77;1715765;82;21251;-76
2021/03/23 04:33:30;;;;;;;44.00;27.60;;;;;;;1.39;87.59;99090.00;1713424;84;21317;-76
2021/03/23 04:36:35;;;;;;;38.02;26.27;;;;;;;1.40;87.73;99092.54;1713258;84;21150;-76
2021/03/23 04:39:41;;;;;;;40.12;28.32;;;;;;;1.40;87.77;99096.58;1719497;82;21232;-76
2021/03/23 04:42:49;;;;;;;47.88;30.82;;;;;;;1.40;87.90;99101.13;1718334;82;21304;-76
2021/03/23 04:45:54;;;;;;;45.08;30.35;;;;;;;1.40;88.01;99098.44;1713245;84;21186;-76
2021/03/23 04:48:59;;;;;;;44.67;30.92;;;;;;;1.43;88.10;99100.84;1713122;84;21268;-75
2021/03/23 04:52:06;;;;;;;43.65;28.98;;;;;;;1.44;88.11;99110.62;1706902;83;21178;-76
2021/03/23 04:55:13;;;;;;;43.95;29.60;;;;;;;1.43;88.09;99115.66;1729400;83;21810;-76
2021/03/23 04:58:19;;;;;;;47.03;32.88;;;;;;;1.42;88.13;99118.02;1729464;83;21266;-75
2021/03/23 05:01:24;;;;;;;38.28;26.73;;;;;;;1.40;88.16;99124.03;1727339;83;21145;-75
2021/03/23 05:04:31;;;;;;;35.55;24.02;;;;;;;1.38;88.17;99127.38;1703633;84;21330;-76
2021/03/23 05:07:37;;;;;;;32.95;22.98;;;;;;;1.32;88.09;99132.86;1712264;83;21256;-76
2021/03/23 05:10:43;;;;;;;31.60;21.93;;;;;;;1.25;88.00;99139.31;1709660;83;21280;-75
2021/03/23 05:13:49;;;;;;;26.70;19.37;;;;;;;1.22;87.96;99144.13;1703396;84;21800;-75
2021/03/23 05:16:55;;;;;;;29.23;21.35;;;;;;;1.17;87.88;99147.27;1708233;83;21839;-75
2021/03/23 05:20:02;;;;;;;27.25;19.50;;;;;;;1.13;87.93;99145.00;1702492;83;21303;-76
2021/03/23 05:23:08;;;;;;;29.05;18.52;;;;;;;1.12;87.98;99148.70;1690267;83;21260;-76
2021/03/23 05:26:14;;;;;;;22.90;16.93;;;;;;;1.14;88.09;99151.61;1695861;83;21315;-77
2021/03/23 05:29:19;;;;;;;22.77;15.85;;;;;;;1.19;87.99;99155.22;1699566;83;21157;-76
2021/03/23 05:32:25;;;;;;;24.60;16.73;;;;;;;1.22;87.73;99153.56;1694055;84;21803;-76
2021/03/23 05:35:31;;;;;;;23.73;18.17;;;;;;;1.26;87.47;99154.98;1684458;83;21217;-77
2021/03/23 05:38:36;;;;;;;23.07;16.62;;;;;;;1.28;87.23;99167.32;1700530;83;21633;-76
2021/03/23 05:42:24;;;;;;;28.50;17.75;;;;;;;1.33;86.99;99176.81;1700644;83;21180;-77
2021/03/23 05:45:45;;;;;;;23.40;17.00;;;;;;;1.39;86.72;99174.88;1700938;83;21865;-76
2021/03/23 05:49:01;;;;;;;22.77;16.55;;;;;;;1.43;86.38;99169.55;1694857;83;21738;-77
2021/03/23 05:52:23;;;;;;;26.02;15.90;;;;;;;1.51;86.27;99166.98;1700473;83;21851;-77
2021/03/23 05:55:54;;;;;;;;;;;;;;;;;;;;;
2021/03/23 05:59:03;;;;;;;28.00;20.85;;;;;;;1.63;85.52;99174.38;1719760;81;21370;-76
2021/03/23 06:02:22;;;;;;;24.87;17.87;;;;;;;1.67;85.15;99177.14;1705354;82;21330;-76
2021/03/23 06:05:42;;;;;;;23.47;17.12;;;;;;;1.70;85.04;99182.25;1649618;85;22203;-76
2021/03/23 06:08:47;;;;;;;28.75;19.82;;;;;;;1.71;84.80;99191.52;1670792;84;21310;-76
2021/03/23 06:12:20;;;;;;;26.23;18.40;;;;;;;1.75;84.61;99188.89;1700459;83;21175;-76
2021/03/23 06:15:34;;;;;;;32.10;22.37;;;;;;;1.82;84.38;99184.25;1699994;83;21346;-76
2021/03/23 06:19:19;;;;;;;27.73;19.75;;;;;;;1.88;84.01;99174.20;1700854;83;21283;-76
2021/03/23 06:22:52;;;;;;;26.33;18.65;;;;;;;1.95;83.57;99180.22;1698326;83;21315;-81
2021/03/23 06:26:32;;;;;;;29.30;21.60;;;;;;;2.04;83.04;99187.92;1698822;83;21335;-77
2021/03/23 06:30:03;;;;;;;27.90;19.00;;;;;;;2.12;82.87;99192.08;1699428;83;21307;-76
2021/03/23 06:33:08;;;;;;;30.40;20.35;;;;;;;2.21;82.31;99200.63;1703190;83;21575;-76
2021/03/23 06:36:28;;;;;;;30.52;19.50;;;;;;;2.23;81.99;99197.26;1698638;83;21393;-76
2021/03/23 06:39:37;;;;;;;29.45;20.50;;;;;;;2.28;81.25;99203.05;1677727;83;21207;-76
2021/03/23 06:42:49;;;;;;;29.50;21.27;;;;;;;2.24;80.46;99203.00;1698995;83;21870;-75
2021/03/23 06:46:11;;;;;;;32.17;21.68;;;;;;;2.23;80.28;99201.81;1696660;83;21186;-76
2021/03/23 06:49:29;;;;;;;27.22;18.80;;;;;;;2.26;80.29;99214.51;1678376;83;21288;-77
2021/03/23 06:52:35;;;;;;;32.30;19.10;;;;;;;2.33;80.10;99215.25;1697847;83;21257;-77
2021/03/23 06:55:40;;;;;;;29.55;20.17;;;;;;;2.43;80.17;99218.73;1695721;83;21327;-77
2021/03/23 06:58:46;;;;;;;30.75;21.07;;;;;;;2.46;78.71;99218.45;1693107;83;21541;-76
2021/03/23 07:02:02;;;;;;;29.75;21.05;;;;;;;2.49;78.70;99231.62;1694253;83;21187;-77
2021/03/23 07:05:44;;;;;;;31.65;21.80;;;;;;;2.61;79.13;99229.06;1698161;83;22168;-77
2021/03/23 07:08:55;;;;;;;31.77;21.02;;;;;;;2.78;78.68;99217.95;1723498;81;22658;-76
2021/03/23 07:12:10;;;;;;;26.62;19.52;;;;;;;2.92;78.60;99223.33;1710753;82;21798;-76
2021/03/23 07:15:28;;;;;;;31.00;19.55;;;;;;;2.89;76.29;99227.17;1721271;81;21196;-76
2021/03/23 07:18:40;;;;;;;24.57;17.62;;;;;;;2.86;75.97;99228.81;1698669;83;21171;-76
2021/03/23 07:21:50;;;;;;;31.12;20.60;;;;;;;2.87;76.26;99232.36;1726571;81;21208;-77
2021/03/23 07:25:05;;;;;;;27.42;18.62;;;;;;;2.87;75.58;99233.24;1701427;83;21346;-75
2021/03/23 07:28:37;;;;;;;22.85;16.70;;;;;;;2.85;75.96;99242.48;1697511;83;21191;-77
2021/03/23 07:32:04;;;;;;;24.23;18.32;;;;;;;2.86;75.87;99241.48;1719631;82;21996;-76
2021/03/23 07:35:41;;;;;;;25.52;18.17;;;;;;;2.85;75.24;99247.38;1701443;82;21282;-78
2021/03/23 07:39:09;;;;;;;24.55;16.45;;;;;;;2.84;75.68;99243.49;1726684;81;21369;-76
2021/03/23 07:42:41;;;;;;;25.08;18.17;;;;;;;2.85;75.12;99245.19;1726688;81;21955;-76
2021/03/23 07:46:12;;;;;;;;;;;;;;;2.92;75.97;99245.78;1726988;82;21405;-76
2021/03/23 07:49:51;;;;;;;;;;;;;;;2.97;74.06;99244.82;1697332;83;21424;-77
2021/03/23 07:53:28;;;;;;;23.32;17.30;;;;;;;2.99;73.45;99244.15;1693486;83;20234;-75
2021/03/23 07:56:51;;;;;;;22.55;16.02;;;;;;;3.01;73.58;99242.63;1611859;83;21247;-76
2021/03/23 08:00:17;;;;;;;26.52;17.17;;;;;;;3.07;73.73;99239.34;1692552;83;21350;-77
2021/03/23 08:03:57;;;;;;;20.50;15.05;;;;;;;3.17;73.57;99251.42;1701556;83;22476;-77
2021/03/23 08:07:14;;;;;;;20.72;14.60;;;;;;;3.24;72.24;99241.67;1697611;83;21311;-77
2021/03/23 08:10:42;;;;;;;18.40;14.40;;;;;;;3.24;70.73;99242.52;1700727;83;21295;-78
2021/03/23 08:14:09;;;;;;;20.08;14.95;;;;;;;3.25;71.66;99240.69;1701968;83;21303;-77
2021/03/23 08:17:44;;;;;;;19.90;13.08;;;;;;;3.29;71.13;99242.92;1724494;82;21305;-78
2021/03/23 08:21:23;;;;;;;19.62;13.32;;;;;;;3.29;71.36;99236.17;1697746;83;21757;-78
2021/03/23 08:24:54;;;;;;;18.00;11.78;;;;;;;3.30;71.13;99242.42;1729862;81;21208;-80
2021/03/23 08:28:40;;;;;;;13.25;9.30;;;;;;;3.41;69.44;99249.42;1696285;83;22578;-76
2021/03/23 08:31:54;;;;;;;17.55;11.45;;;;;;;3.51;68.30;99244.77;1711656;82;21188;-77
2021/03/23 08:35:22;;;;;;;17.57;10.78;;;;;;;3.53;68.53;99242.78;1713319;82;21326;-77
2021/03/23 08:39:16;;;;;;;13.43;8.10;;;;;;;3.60;68.48;99253.30;1714657;82;21412;-77
2021/03/23 08:42:27;;;;;;;15.20;8.38;;;;;;;3.71;68.23;99240.01;1704533;82;21509;-76
2021/03/23 08:45:43;;;;;;;11.20;6.75;;;;;;;3.76;68.02;99258.80;1707469;82;21276;-77
2021/03/23 08:49:15;;;;;;;9.75;6.00;;;;;;;3.79;66.35;99261.20;1707632;82;21235;-77
2021/03/23 08:52:48;;;;;;;14.33;7.62;;;;;;;3.75;64.62;99263.03;1712715;82;21990;-78
2021/03/23 08:55:56;;;;;;;15.32;5.85;;;;;;;3.63;64.76;99248.09;1713107;82;21181;-77
2021/03/23 08:59:10;;;;;;;8.38;5.78;;;;;;;3.63;65.15;99252.14;1711110;82;22171;-76
2021/03/23 09:02:24;;;;;;;7.50;5.22;;;;;;;3.62;65.95;99245.86;1743984;80;21620;-77
2021/03/23 09:05:37;;;;;;;7.72;5.10;;;;;;;3.69;64.06;99255.05;1743479;80;21311;-78
2021/03/23 09:08:57;;;;;;;8.40;4.92;;;;;;;3.65;62.38;99259.08;1749123;80;21176;-77
2021/03/23 09:12:23;;;;;;;5.95;3.90;;;;;;;3.56;62.35;99255.96;1743071;80;21213;-77
2021/03/23 09:15:34;;;;;;;5.83;3.60;;;;;;;3.52;58.62;99254.06;1735258;80;21181;-76
2021/03/23 09:18:42;;;;;;;9.58;4.90;;;;;;;3.64;57.21;99260.09;1726279;81;21792;-77
2021/03/23 09:22:04;;;;;;;7.72;3.70;;;;;;;3.71;58.69;99250.32;1728009;81;22314;-77
2021/03/23 09:25:29;;;;;;;7.75;4.50;;;;;;;3.65;59.01;99260.94;1737927;80;21298;-78
2021/03/23 09:28:50;;;;;;;6.95;4.17;;;;;;;3.70;58.66;99260.80;1706894;80;21156;-78
2021/03/23 09:32:05;;;;;;;5.22;3.25;;;;;;;3.74;57.10;99266.24;1709872;80;21173;-78
2021/03/23 09:35:15;;;;;;;4.40;2.50;;;;;;;3.80;55.52;99269.66;1726454;81;21328;-77
2021/03/23 09:38:54;;;;;;;7.25;3.25;;;;;;;3.82;53.88;99251.94;1726230;81;22473;-76
2021/03/23 09:42:17;;;;;;;5.85;2.90;;;;;;;3.85;54.54;99242.13;1698992;82;21180;-76
2021/03/23 09:45:30;;;;;;;4.22;2.42;;;;;;;4.02;53.11;99229.56;1647285;83;21212;-76
2021/03/23 09:49:24;;;;;;;6.92;2.37;;;;;;;4.15;50.58;99237.25;1736721;80;21194;-77
2021/03/23 09:52:34;;;;;;;4.87;2.42;;;;;;;4.18;48.79;99235.05;1724135;81;21213;-77
2021/03/23 09:55:41;;;;;;;6.00;2.65;;;;;;;4.13;50.73;99234.69;1742126;80;21767;-77
2021/03/23 09:58:46;;;;;;;5.20;2.62;;;;;;;4.23;51.06;99233.20;1738193;80;21259;-77
2021/03/23 10:02:07;;;;;;;4.03;2.17;;;;;;;4.39;49.01;99241.93;1737967;80;21165;-78
2021/03/23 10:05:32;;;;;;;4.90;2.50;;;;;;;4.44;45.75;99239.58;1692158;82;21304;-78
2021/03/23 10:08:41;;;;;;;4.90;2.27;;;;;;;4.31;46.63;99232.75;1692454;83;21638;-76
2021/03/23 10:11:54;;;;;;;5.17;2.20;;;;;;;4.18;49.84;99251.28;1715533;81;21162;-78
2021/03/23 10:15:01;;;;;;;5.03;2.58;;;;;;;3.96;49.17;99256.77;1735271;80;21183;-79
2021/03/23 10:18:37;;;;;;;5.75;2.77;;;;;;;3.76;49.97;99268.78;1723725;81;21137;-77
2021/03/23 10:21:45;;;;;;;5.80;2.40;;;;;;;3.72;49.10;99271.48;1724258;81;21182;-77
2021/03/23 10:24:52;;;;;;;4.03;2.10;;;;;;;3.78;46.21;99258.67;1734650;80;21164;-77
2021/03/23 10:28:00;;;;;;;5.22;2.50;;;;;;;3.89;45.82;99251.63;1724367;81;22191;-77
2021/03/23 10:31:18;;;;;;;5.15;1.65;;;;;;;4.03;48.09;99238.02;1740251;79;21181;-77
2021/03/23 10:34:39;;;;;;;20.72;4.42;;;;;;;4.23;46.21;99236.76;1743265;79;21326;-78
2021/03/23 10:37:45;;;;;;;7.60;3.70;;;;;;;4.27;44.17;99231.87;1726300;81;21172;-78
2021/03/23 10:40:52;;;;;;;7.47;4.22;;;;;;;4.23;44.51;99221.88;1712843;81;21245;-76
2021/03/23 10:44:22;;;;;;;5.37;3.27;;;;;;;4.21;44.88;99225.27;1719848;83;21559;-77
2021/03/23 10:47:40;;;;;;;8.50;3.55;;;;;;;4.15;45.32;99215.60;1707080;82;21742;-76
2021/03/23 10:50:46;;;;;;;10.20;3.35;;;;;;;4.23;46.79;99208.34;1701963;82;21292;-76
2021/03/23 10:54:26;;;;;;;5.40;2.77;;;;;;;4.42;45.86;99205.03;1728085;81;21641;-77
2021/03/23 10:57:38;;;;;;;14.50;6.00;;;;;;;4.54;44.43;99203.73;1714846;81;21181;-77
2021/03/23 11:00:44;;;;;;;8.00;3.02;;;;;;;4.53;46.35;99196.62;1720689;81;21801;-77
2021/03/23 11:03:55;;;;;;;5.78;3.37;;;;;;;4.33;44.68;99209.59;1708206;81;21181;-77
2021/03/23 11:07:04;;;;;;;8.93;3.77;;;;;;;4.05;45.62;99206.25;1727502;81;21178;-76
2021/03/23 11:10:16;;;;;;;9.33;4.37;;;;;;;3.83;47.38;99211.19;1689737;81;21173;-77
2021/03/23 11:13:24;;;;;;;10.60;4.47;;;;;;;3.74;47.58;99217.56;1687887;82;21514;-77
2021/03/23 11:16:40;;;;;;;7.08;4.45;;;;;;;3.76;45.63;99218.23;1671293;83;21200;-77
2021/03/23 11:19:50;;;;;;;7.85;3.75;;;;;;;3.85;45.16;99207.81;1690710;83;21193;-76
2021/03/23 11:22:56;;;;;;;6.50;2.42;;;;;;;3.96;46.25;99220.23;1702341;82;21189;-77
2021/03/23 11:26:02;;;;;;;4.65;2.20;;;;;;;4.08;43.52;99217.58;1696407;83;21132;-77
2021/03/23 11:29:14;;;;;;;4.75;2.40;;;;;;;4.13;43.34;99203.56;1714045;83;21173;-77
2021/03/23 11:32:20;;;;;;;6.95;2.40;;;;;;;4.15;44.37;99209.68;1682443;84;21201;-76
2021/03/23 11:35:26;;;;;;;6.78;3.10;;;;;;;4.05;43.00;99205.75;1694403;83;21300;-76
2021/03/23 11:38:34;;;;;;;5.12;2.72;;;;;;;3.94;43.20;99201.95;1680438;83;21771;-77
2021/03/23 11:41:44;;;;;;;6.22;2.67;;;;;;;3.90;42.71;99201.08;1682083;83;21278;-77
2021/03/23 11:44:52;;;;;;;4.93;2.27;;;;;;;3.92;43.83;99201.78;1752254;80;21212;-77
2021/03/23 11:48:04;;;;;;;6.10;2.45;;;;;;;3.99;44.55;99185.23;1754829;80;21287;-76
2021/03/23 11:51:10;;;;;;;6.75;1.82;;;;;;;4.12;44.35;99182.93;1704410;83;21161;-76
2021/03/23 11:54:17;;;;;;;4.42;1.60;;;;;;;4.15;40.88;99175.00;1690017;83;21336;-77
2021/03/23 11:57:32;;;;;;;3.67;1.57;;;;;;;4.05;39.63;99166.50;1664318;85;21241;-77
2021/03/23 12:00:39;;;;;;;3.95;1.57;;;;;;;3.87;39.67;99172.50;1746647;80;21243;-77
2021/03/23 12:03:49;;;;;;;3.22;1.57;;;;;;;3.73;38.85;99174.45;1745057;80;21639;-77
2021/03/23 12:07:24;;;;;;;3.75;1.57;;;;;;;3.65;40.57;99180.66;1715635;82;21304;-76
2021/03/23 12:10:32;;;;;;;2.87;1.52;;;;;;;3.60;38.33;99180.28;1748350;80;21226;-78
2021/03/23 12:14:04;;;;;;;3.10;1.40;;;;;;;3.58;37.27;99193.13;1709137;83;21311;-77
2021/03/23 12:17:16;;;;;;;2.95;1.40;;;;;;;3.59;40.71;99179.44;1639676;83;21232;-77
2021/03/23 12:20:34;;;;;;;5.47;2.30;;;;;;;3.60;38.55;99184.34;1693929;83;21201;-76
2021/03/23 12:23:48;;;;;;;4.62;1.65;;;;;;;3.71;39.56;99179.16;1692056;83;21730;-76
2021/03/23 12:26:58;;;;;;;5.75;1.82;;;;;;;3.88;41.15;99183.66;1639442;84;21946;-77
2021/03/23 12:30:05;;;;;;;5.42;2.25;;;;;;;4.01;41.17;99185.42;1697038;83;21311;-76
2021/03/23 12:33:11;;;;;;;6.75;2.77;;;;;;;4.06;41.73;99191.70;1705785;83;21993;-76
2021/03/23 12:36:18;;;;;;;6.95;3.20;;;;;;;4.03;43.13;99183.90;1706484;82;21331;-76
2021/03/23 12:39:23;;;;;;;8.28;2.85;;;;;;;4.03;42.78;99192.02;1735856;81;21292;-77
2021/03/23 12:42:38;;;;;;;10.55;3.62;;;;;;;4.04;43.33;99200.47;1740182;80;21330;-78
2021/03/23 12:45:59;;;;;;;13.22;4.45;;;;;;;3.97;42.59;99193.52;1702530;82;21336;-78
2021/03/23 12:49:08;;;;;;;7.95;3.50;;;;;;;3.92;42.87;99199.08;1717891;82;22202;-77
2021/03/23 12:52:21;;;;;;;9.10;3.20;;;;;;;3.95;42.67;99194.67;1730912;81;21424;-77
2021/03/23 12:55:33;;;;;;;4.42;2.62;;;;;;;3.94;41.26;99200.59;1729410;81;21894;-76
2021/03/23 12:58:43;;;;;;;8.35;3.70;;;;;;;3.94;41.70;99203.80;1698614;82;21207;-77
2021/03/23 13:01:48;;;;;;;10.58;4.08;;;;;;;3.91;40.91;99200.09;1727690;81;21756;-76
2021/03/23 13:04:57;;;;;;;15.88;4.35;;;;;;;3.88;41.21;99199.05;1731774;81;21188;-76
2021/03/23 13:08:15;;;;;;;4.20;2.17;;;;;;;3.91;41.79;99191.97;1741482;80;21188;-76
2021/03/23 13:11:27;;;;;;;6.67;2.95;;;;;;;4.02;41.26;99191.69;1734909;80;21220;-77
2021/03/23 13:14:33;;;;;;;;;;;;;;;4.08;39.79;99191.87;1741586;80;22448;-77
2021/03/23 13:17:41;;;;;;;2.70;1.15;;;;;;;4.11;40.58;99201.53;1739696;80;21049;-76
2021/03/23 13:20:48;;;;;;;3.47;1.62;;;;;;;4.12;40.79;99192.40;1702823;82;21207;-76
2021/03/23 13:24:07;;;;;;;5.67;1.82;;;;;;;4.13;42.50;99197.30;1727489;81;21879;-76
2021/03/23 13:27:31;;;;;;;4.45;1.90;;;;;;;4.08;41.78;99209.97;1723197;81;21323;-77
2021/03/23 13:30:37;;;;;;;2.92;1.42;;;;;;;3.97;41.12;99197.58;1700279;82;21341;-76
2021/03/23 13:33:47;;;;;;;2.98;1.65;;;;;;;3.92;41.93;99200.42;1724976;82;21271;-76
2021/03/23 13:36:56;;;;;;;2.45;1.32;;;;;;;3.97;41.74;99211.11;1722688;81;21225;-76
2021/03/23 13:40:08;;;;;;;2.80;1.60;;;;;;;4.03;40.51;99220.43;1729555;81;21204;-75
2021/03/23 13:43:22;;;;;;;4.00;1.30;;;;;;;4.03;41.64;99213.16;1694182;82;21322;-75
2021/03/23 13:46:47;;;;;;;2.22;1.22;;;;;;;4.03;39.45;99223.98;1723971;81;21185;-77
2021/03/23 13:49:54;;;;;;;2.75;1.22;;;;;;;4.04;38.79;99214.00;1683672;83;22371;-76
2021/03/23 13:53:06;;;;;;;3.12;1.90;;;;;;;4.03;34.38;99228.55;1675935;83;21825;-76
2021/03/23 13:56:13;;;;;;;3.08;1.60;;;;;;;3.97;35.77;99232.75;1744221;80;21869;-77
2021/03/23 13:59:26;;;;;;;6.53;1.87;;;;;;;3.82;37.08;99235.70;1741270;80;21303;-76
2021/03/23 14:02:32;;;;;;;8.20;3.12;;;;;;;3.69;40.08;99226.66;1743642;80;21311;-76
2021/03/23 14:05:40;;;;;;;9.45;3.25;;;;;;;3.65;41.96;99242.00;1743597;80;22083;-76
2021/03/23 14:08:48;;;;;;;7.33;2.83;;;;;;;3.63;43.51;99258.40;1739789;80;21130;-76
2021/03/23 14:11:57;;;;;;;6.53;3.05;;;;;;;3.59;43.08;99250.25;1739778;82;21147;-76
2021/03/23 14:15:02;;;;;;;9.28;3.60;;;;;;;3.55;43.07;99248.86;1744806;80;21290;-76
2021/03/23 14:18:08;;;;;;;6.42;3.15;;;;;;;3.53;41.92;99252.24;1746236;80;21283;-77
2021/03/23 14:21:15;;;;;;;10.72;3.52;;;;;;;3.52;42.33;99249.16;1740739;80;21787;-77
2021/03/23 14:24:20;;;;;;;5.37;2.08;;;;;;;3.53;41.68;99244.13;1735199;81;22079;-77
2021/03/23 14:27:27;;;;;;;4.62;1.98;;;;;;;3.52;41.03;99246.47;1700091;83;21283;-77
2021/03/23 14:30:39;;;;;;;5.40;2.17;;;;;;;3.51;40.53;99246.13;1684612;84;21910;-76
2021/03/23 14:33:46;;;;;;;4.85;2.75;;;;;;;3.48;39.48;99244.60;1732268;81;21252;-79
2021/03/23 14:36:53;;;;;;;5.67;2.52;;;;;;;3.41;38.87;99245.38;1746341;81;21275;-76
2021/03/23 14:39:58;;;;;;;6.03;2.12;;;;;;;3.36;40.08;99243.14;1746762;80;21140;-76
2021/03/23 14:43:06;;;;;;;5.75;3.10;;;;;;;3.30;40.30;99244.62;1736316;81;21264;-76
2021/03/23 14:46:11;;;;;;;12.47;5.28;;;;;;;3.24;40.01;99250.62;1738878;81;21259;-76
2021/03/23 14:49:21;;;;;;;17.20;8.50;;;;;;;3.21;40.80;99263.11;1758937;80;21189;-76
2021/03/23 14:52:33;;;;;;;6.17;3.10;;;;;;;3.13;41.79;99256.78;1775549;80;21586;-76
2021/03/23 14:55:39;;;;;;;6.10;2.83;;;;;;;3.01;43.18;99254.31;1746976;82;21269;-76
2021/03/23 14:58:45;;;;;;;11.60;4.33;;;;;;;2.87;44.57;99264.77;1736875;82;21669;-76
2021/03/23 15:01:52;;;;;;;8.83;3.45;;;;;;;2.70;45.41;99272.71;1731985;83;21343;-76
2021/03/23 15:04:57;;;;;;;10.08;3.10;;;;;;;2.56;45.95;99267.83;1731791;83;21324;-76
2021/03/23 15:08:03;;;;;;;6.53;2.98;;;;;;;2.43;46.82;99276.27;1749792;81;21770;-76